createdAt,value
2022-10-25T00:00:12.030Z,59.78
2022-10-25T00:01:17.289Z,49.70
2022-10-25T00:02:21.947Z,39.15
2022-10-25T00:03:26.169Z,39.53
2022-10-25T00:04:30.511Z,179.05
2022-10-25T00:05:34.316Z,165.50
2022-10-25T00:06:37.019Z,42.53
2022-10-25T00:07:40.769Z,45.50
2022-10-25T00:08:43.516Z,39.50
2022-10-25T00:09:47.250Z,71.43
2022-10-25T00:10:49.999Z,82.25
2022-10-25T00:11:53.768Z,150.52
2022-10-25T00:12:56.597Z,61.65
2022-10-25T00:14:02.588Z,136.18
2022-10-25T00:15:06.349Z,86.82
2022-10-25T00:16:15.666Z,122.47
2022-10-25T00:17:18.385Z,106.82
2022-10-25T00:18:22.228Z,56.97
2022-10-25T00:19:25.002Z,47.13
2022-10-25T00:20:30.376Z,42.60
2022-10-25T00:21:33.243Z,114.35
2022-10-25T00:22:37.039Z,45.88
2022-10-25T00:23:39.773Z,51.38
2022-10-25T00:24:43.562Z,56.10
2022-10-25T00:25:46.262Z,57.45
2022-10-25T00:26:49.989Z,46.60
2022-10-25T00:27:52.757Z,50.97
2022-10-25T00:28:56.845Z,53.25
2022-10-25T00:29:59.695Z,53.22
2022-10-25T00:31:04.474Z,52.67
2022-10-25T00:32:07.188Z,50.95
2022-10-25T00:33:11.012Z,77.95
2022-10-25T00:34:13.819Z,52.40
2022-10-25T00:35:17.682Z,86.80
2022-10-25T00:36:23.649Z,62.58
2022-10-25T00:37:27.379Z,53.00
2022-10-25T00:38:30.829Z,58.35
2022-10-25T00:39:34.604Z,75.45
2022-10-25T00:40:37.320Z,62.55
2022-10-25T00:41:41.281Z,69.28
2022-10-25T00:42:44.098Z,78.15
2022-10-25T00:43:49.501Z,82.53
2022-10-25T00:44:54.715Z,134.13
2022-10-25T00:45:58.715Z,62.63
2022-10-25T00:47:02.142Z,78.20
2022-10-25T00:48:06.861Z,69.40
2022-10-25T00:49:12.920Z,60.45
2022-10-25T00:50:22.772Z,115.07
2022-10-25T00:51:32.173Z,68.10
2022-10-25T00:52:36.722Z,68.38
2022-10-25T00:53:40.851Z,67.75
2022-10-25T00:54:45.893Z,74.43
2022-10-25T00:55:53.727Z,83.10
2022-10-25T00:56:58.609Z,54.50
2022-10-25T00:58:05.571Z,82.30
2022-10-25T00:59:10.813Z,96.88
2022-10-25T01:00:15.172Z,62.88
2022-10-25T01:01:18.895Z,56.03
2022-10-25T01:02:24.343Z,84.40
2022-10-25T01:03:27.368Z,54.78
2022-10-25T01:04:32.093Z,66.85
2022-10-25T01:05:35.403Z,56.30
2022-10-25T01:06:42.671Z,59.80
2022-10-25T01:07:45.722Z,52.50
2022-10-25T01:08:50.531Z,59.03
2022-10-25T01:09:53.365Z,60.92
2022-10-25T01:10:57.140Z,77.63
2022-10-25T01:11:59.888Z,58.85
2022-10-25T01:13:03.881Z,57.42
2022-10-25T01:14:07.615Z,56.50
2022-10-25T01:15:12.161Z,56.58
2022-10-25T01:16:19.392Z,57.35
2022-10-25T01:17:29.553Z,64.25
2022-10-25T01:18:43.509Z,60.78
2022-10-25T01:20:04.282Z,55.03
2022-10-25T01:21:54.978Z,60.78
2022-10-25T01:23:05.553Z,66.72
2022-10-25T01:24:22.015Z,58.58
2022-10-25T01:25:54.917Z,61.58
2022-10-25T01:27:21.643Z,66.85
2022-10-25T01:28:30.987Z,53.38
2022-10-25T01:30:07.101Z,62.17
2022-10-25T01:31:27.574Z,48.70
2022-10-25T01:32:36.042Z,62.35
2022-10-25T01:33:44.435Z,100.63
2022-10-25T01:34:52.215Z,64.45
2022-10-25T01:35:58.999Z,60.60
2022-10-25T01:37:05.976Z,68.78
2022-10-25T01:38:32.714Z,61.08
2022-10-25T01:39:37.456Z,83.10
2022-10-25T01:40:47.525Z,55.15
2022-10-25T01:41:57.184Z,88.35
2022-10-25T01:43:03.827Z,206.13
2022-10-25T01:44:19.021Z,223.90
2022-10-25T01:45:26.639Z,114.55
2022-10-25T01:46:36.373Z,209.77
2022-10-25T01:47:45.320Z,204.23
2022-10-25T01:48:50.617Z,131.38
2022-10-25T01:49:58.289Z,96.10
2022-10-25T01:51:07.946Z,71.97
2022-10-25T01:52:10.740Z,76.60
2022-10-25T01:53:14.586Z,128.45
2022-10-25T01:54:22.558Z,159.10
2022-10-25T01:55:30.194Z,104.95
2022-10-25T01:56:36.454Z,78.22
2022-10-25T01:57:54.550Z,95.15
2022-10-25T01:59:09.652Z,61.75
2022-10-25T02:00:15.823Z,67.43
2022-10-25T02:01:24.855Z,48.13
2022-10-25T02:02:33.064Z,69.18
2022-10-25T02:03:39.144Z,64.07
2022-10-25T02:04:49.421Z,73.45
2022-10-25T02:06:00.853Z,65.65
2022-10-25T02:07:09.882Z,93.45
2022-10-25T02:08:22.404Z,59.67
2022-10-25T02:09:30.802Z,77.63
2022-10-25T02:10:39.345Z,62.65
2022-10-25T02:11:42.174Z,63.75
2022-10-25T02:12:53.679Z,70.20
2022-10-25T02:14:06.604Z,71.40
2022-10-25T02:15:12.922Z,66.57
2022-10-25T02:16:19.722Z,73.18
2022-10-25T02:17:24.871Z,124.00
2022-10-25T02:19:43.827Z,69.13
2022-10-25T02:20:47.463Z,75.13
2022-10-25T02:21:51.941Z,63.08
2022-10-25T02:22:55.083Z,70.55
2022-10-25T02:23:59.754Z,76.63
2022-10-25T02:25:02.558Z,126.95
2022-10-25T02:26:08.635Z,76.53
2022-10-25T02:27:12.251Z,81.43
2022-10-25T02:28:17.806Z,107.78
2022-10-25T02:29:21.170Z,95.93
2022-10-25T02:30:24.958Z,125.40
2022-10-25T02:31:28.140Z,76.07
2022-10-25T02:32:32.250Z,77.07
2022-10-25T02:33:36.432Z,102.38
2022-10-25T02:34:41.288Z,81.10
2022-10-25T02:35:43.995Z,79.13
2022-10-25T02:36:50.190Z,78.75
2022-10-25T02:37:52.942Z,88.50
2022-10-25T02:38:57.638Z,144.40
2022-10-25T02:40:00.492Z,83.20
2022-10-25T02:41:05.394Z,88.78
2022-10-25T02:42:09.163Z,113.15
2022-10-25T02:43:11.831Z,155.77
2022-10-25T02:44:15.850Z,111.88
2022-10-25T02:45:18.642Z,93.47
2022-10-25T02:46:23.796Z,171.15
2022-10-25T02:47:26.484Z,98.82
2022-10-25T02:48:30.234Z,83.85
2022-10-25T02:49:34.435Z,118.85
2022-10-25T02:50:38.211Z,92.22
2022-10-25T02:51:42.001Z,96.72
2022-10-25T02:52:45.124Z,104.70
2022-10-25T02:53:49.081Z,153.13
2022-10-25T02:54:51.810Z,176.70
2022-10-25T02:56:01.434Z,139.18
2022-10-25T02:57:04.133Z,139.82
2022-10-25T02:58:07.984Z,188.07
2022-10-25T02:59:12.036Z,158.50
2022-10-25T03:00:16.963Z,171.38
2022-10-25T03:01:21.482Z,144.68
2022-10-25T03:02:26.192Z,164.10
2022-10-25T03:03:29.464Z,161.50
2022-10-25T03:04:34.657Z,142.80
2022-10-25T03:05:37.430Z,166.55
2022-10-25T03:06:41.194Z,137.95
2022-10-25T03:07:43.903Z,165.38
2022-10-25T03:08:47.795Z,199.68
2022-10-25T03:09:50.588Z,197.70
2022-10-25T03:10:54.943Z,193.88
2022-10-25T03:11:57.681Z,213.52
2022-10-25T03:13:01.415Z,216.80
2022-10-25T03:14:04.161Z,150.75
2022-10-25T03:15:09.213Z,202.45
2022-10-25T03:16:12.236Z,182.60
2022-10-25T03:17:16.026Z,213.48
2022-10-25T03:18:18.721Z,225.43
2022-10-25T03:19:22.509Z,272.58
2022-10-25T03:20:26.798Z,217.73
2022-10-25T03:21:30.544Z,226.80
2022-10-25T03:22:33.222Z,176.98
2022-10-25T03:23:36.981Z,152.65
2022-10-25T03:24:39.693Z,137.82
2022-10-25T03:25:43.526Z,161.70
2022-10-25T03:26:46.213Z,170.73
2022-10-25T03:27:50.480Z,249.18
2022-10-25T03:28:53.159Z,160.73
2022-10-25T03:29:56.954Z,282.00
2022-10-25T03:31:01.105Z,204.38
2022-10-25T03:32:05.778Z,196.85
2022-10-25T03:33:09.552Z,156.65
2022-10-25T03:34:12.241Z,174.82
2022-10-25T03:35:16.151Z,182.52
2022-10-25T03:36:21.343Z,346.13
2022-10-25T03:37:24.216Z,298.67
2022-10-25T03:38:27.974Z,363.48
2022-10-25T03:39:30.673Z,479.23
2022-10-25T03:40:34.442Z,462.67
2022-10-25T03:41:37.184Z,270.17
2022-10-25T03:42:41.102Z,308.48
2022-10-25T03:43:45.276Z,244.40
2022-10-25T03:44:49.474Z,175.90
2022-10-25T03:45:52.195Z,180.70
2022-10-25T03:46:56.233Z,189.35
2022-10-25T03:47:58.934Z,311.30
2022-10-25T03:49:02.633Z,180.57
2022-10-25T03:50:06.065Z,162.57
2022-10-25T03:51:09.875Z,152.00
2022-10-25T03:52:14.096Z,133.30
2022-10-25T03:53:17.833Z,113.70
2022-10-25T03:54:21.737Z,116.95
2022-10-25T03:55:27.176Z,128.55
2022-10-25T03:56:29.892Z,120.57
2022-10-25T03:57:33.685Z,105.82
2022-10-25T03:58:36.363Z,119.82
2022-10-25T03:59:40.110Z,130.73
2022-10-25T04:00:42.851Z,125.80
2022-10-25T04:01:46.712Z,119.32
2022-10-25T04:02:57.008Z,120.00
2022-10-25T04:04:03.011Z,146.07
2022-10-25T04:05:06.878Z,105.45
2022-10-25T04:06:10.613Z,145.82
2022-10-25T04:07:14.801Z,106.32
2022-10-25T04:08:18.573Z,114.80
2022-10-25T04:09:21.210Z,96.25
2022-10-25T04:10:25.546Z,98.40
2022-10-25T04:11:29.531Z,138.68
2022-10-25T04:12:32.222Z,142.48
2022-10-25T04:13:35.964Z,133.00
2022-10-25T04:14:38.726Z,156.25
2022-10-25T04:15:42.506Z,119.35
2022-10-25T04:16:45.279Z,129.48
2022-10-25T04:17:50.581Z,156.98
2022-10-25T04:18:53.612Z,125.90
2022-10-25T04:19:57.380Z,133.63
2022-10-25T04:21:00.103Z,114.60
2022-10-25T04:22:03.983Z,270.38
2022-10-25T04:23:08.435Z,105.97
2022-10-25T04:24:12.939Z,127.78
2022-10-25T04:25:15.841Z,139.77
2022-10-25T04:26:20.382Z,143.35
2022-10-25T04:27:23.071Z,137.88
2022-10-25T04:28:27.334Z,153.80
2022-10-25T04:29:30.192Z,126.78
2022-10-25T04:30:36.588Z,141.95
2022-10-25T04:31:41.543Z,134.60
2022-10-25T04:32:45.584Z,158.48
2022-10-25T04:33:49.112Z,118.68
2022-10-25T04:34:52.841Z,125.03
2022-10-25T04:35:56.681Z,141.07
2022-10-25T04:37:00.449Z,129.40
2022-10-25T04:38:03.303Z,125.15
2022-10-25T04:39:08.498Z,121.72
2022-10-25T04:40:12.216Z,111.07
2022-10-25T04:41:15.942Z,154.98
2022-10-25T04:42:19.672Z,105.20
2022-10-25T04:43:23.592Z,137.30
2022-10-25T04:44:26.444Z,104.63
2022-10-25T04:45:30.343Z,131.10
2022-10-25T04:46:33.195Z,133.98
2022-10-25T04:47:36.959Z,108.47
2022-10-25T04:48:40.671Z,109.85
2022-10-25T04:49:44.475Z,85.72
2022-10-25T04:50:47.289Z,94.82
2022-10-25T04:52:58.584Z,99.45
2022-10-25T04:54:02.436Z,76.32
2022-10-25T04:55:07.244Z,69.63
2022-10-25T04:56:13.293Z,81.05
2022-10-25T04:57:16.072Z,78.10
2022-10-25T04:58:19.815Z,123.00
2022-10-25T04:59:22.651Z,75.10
2022-10-25T05:00:26.734Z,176.85
2022-10-25T05:01:29.610Z,104.07
2022-10-25T05:02:33.652Z,72.10
2022-10-25T05:03:36.715Z,104.90
2022-10-25T05:04:40.471Z,92.03
2022-10-25T05:05:43.230Z,85.07
2022-10-25T05:06:47.095Z,74.32
2022-10-25T05:07:49.884Z,86.10
2022-10-25T05:08:53.906Z,77.57
2022-10-25T05:09:56.660Z,76.50
2022-10-25T05:11:01.926Z,62.72
2022-10-25T05:12:05.115Z,77.72
2022-10-25T05:13:08.986Z,73.95
2022-10-25T05:14:11.733Z,87.53
2022-10-25T05:15:15.617Z,58.97
2022-10-25T05:16:22.111Z,61.88
2022-10-25T05:17:26.034Z,123.28
2022-10-25T05:18:28.806Z,146.05
2022-10-25T05:19:32.691Z,73.32
2022-10-25T05:20:35.421Z,80.93
2022-10-25T05:21:39.264Z,63.17
2022-10-25T05:22:42.051Z,76.03
2022-10-25T05:23:46.292Z,62.05
2022-10-25T05:24:49.077Z,67.28
2022-10-25T05:26:03.984Z,78.78
2022-10-25T05:27:07.772Z,107.50
2022-10-25T05:28:10.495Z,63.00
2022-10-25T05:29:14.376Z,59.22
2022-10-25T05:30:17.222Z,54.50
2022-10-25T05:31:22.572Z,82.15
2022-10-25T05:32:25.475Z,67.13
2022-10-25T05:33:29.298Z,94.00
2022-10-25T05:34:33.075Z,61.80
2022-10-25T05:35:35.854Z,78.53
2022-10-25T05:36:39.792Z,93.13
2022-10-25T05:37:42.422Z,63.13
2022-10-25T05:38:46.773Z,90.20
2022-10-25T05:39:49.461Z,58.80
2022-10-25T05:40:57.094Z,76.35
2022-10-25T05:42:02.758Z,61.10
2022-10-25T05:43:06.466Z,51.97
2022-10-25T05:44:10.414Z,65.28
2022-10-25T05:45:13.193Z,51.75
2022-10-25T05:46:19.340Z,86.45
2022-10-25T05:47:22.053Z,52.95
2022-10-25T05:48:25.824Z,74.65
2022-10-25T05:49:29.531Z,58.95
2022-10-25T05:50:32.454Z,80.15
2022-10-25T05:51:37.104Z,62.35
2022-10-25T05:52:42.832Z,89.90
2022-10-25T05:53:47.814Z,68.03
2022-10-25T05:54:50.526Z,56.13
2022-10-25T05:55:54.441Z,82.60
2022-10-25T05:56:58.284Z,128.13
2022-10-25T05:58:02.455Z,68.75
2022-10-25T05:59:09.158Z,62.08
2022-10-25T06:00:13.625Z,68.15
2022-10-25T06:01:19.681Z,55.58
2022-10-25T06:02:22.509Z,69.30
2022-10-25T06:03:26.523Z,63.08
2022-10-25T06:04:30.640Z,61.58
2022-10-25T06:05:33.843Z,78.45
2022-10-25T06:06:38.772Z,60.63
2022-10-25T06:07:41.616Z,62.45
2022-10-25T06:08:45.904Z,68.18
2022-10-25T06:09:48.713Z,68.72
2022-10-25T06:10:52.605Z,71.57
2022-10-25T06:11:56.484Z,59.38
2022-10-25T06:12:59.182Z,61.47
2022-10-25T06:14:04.505Z,64.60
2022-10-25T06:15:09.101Z,57.75
2022-10-25T06:16:14.108Z,60.53
2022-10-25T06:17:17.854Z,81.53
2022-10-25T06:18:20.635Z,68.25
2022-10-25T06:19:24.477Z,74.53
2022-10-25T06:20:27.349Z,63.30
2022-10-25T06:21:32.003Z,54.88
2022-10-25T06:22:34.682Z,46.65
2022-10-25T06:23:38.924Z,53.47
2022-10-25T06:24:41.752Z,50.88
2022-10-25T06:25:45.462Z,51.45
2022-10-25T06:26:49.443Z,48.13
2022-10-25T06:27:52.237Z,46.85
2022-10-25T06:28:57.761Z,43.28
2022-10-25T06:30:01.915Z,43.75
2022-10-25T06:31:07.104Z,42.15
2022-10-25T06:32:10.916Z,55.03
2022-10-25T06:33:13.655Z,49.60
2022-10-25T06:34:17.410Z,52.13
2022-10-25T06:35:20.141Z,66.10
2022-10-25T06:36:27.133Z,51.35
2022-10-25T06:37:30.316Z,51.90
2022-10-25T06:38:35.063Z,55.58
2022-10-25T06:39:38.871Z,46.35
2022-10-25T06:40:41.556Z,45.80
2022-10-25T06:41:45.443Z,64.97
2022-10-25T06:42:49.430Z,51.85
2022-10-25T06:43:52.399Z,62.17
2022-10-25T06:44:56.325Z,49.90
2022-10-25T06:46:05.673Z,47.03
2022-10-25T06:47:17.472Z,47.00
2022-10-25T06:48:22.217Z,41.85
2022-10-25T06:49:26.422Z,47.17
2022-10-25T06:50:30.375Z,36.70
2022-10-25T06:51:34.604Z,45.72
2022-10-25T06:52:38.535Z,38.10
2022-10-25T06:53:41.481Z,41.08
2022-10-25T06:54:45.294Z,29.35
2022-10-25T06:55:49.781Z,29.00
2022-10-25T06:56:52.615Z,24.92
2022-10-25T06:57:57.893Z,22.85
2022-10-25T06:59:00.753Z,23.33
2022-10-25T07:00:04.905Z,21.15
2022-10-25T07:01:11.755Z,20.02
2022-10-25T07:02:15.821Z,22.83
2022-10-25T07:03:18.620Z,22.25
2022-10-25T07:04:22.477Z,17.58
2022-10-25T07:05:25.660Z,17.23
2022-10-25T07:06:35.751Z,22.30
2022-10-25T07:07:40.099Z,20.23
2022-10-25T07:08:44.240Z,22.27
2022-10-25T07:09:48.044Z,20.75
2022-10-25T07:10:54.310Z,22.70
2022-10-25T07:11:58.086Z,20.10
2022-10-25T07:13:00.830Z,21.80
2022-10-25T07:14:05.071Z,18.20
2022-10-25T07:15:09.001Z,20.02
2022-10-25T07:16:16.342Z,19.88
2022-10-25T07:17:20.032Z,20.25
2022-10-25T07:18:22.791Z,20.10
2022-10-25T07:19:26.820Z,21.95
2022-10-25T07:20:30.693Z,17.27
2022-10-25T07:21:34.018Z,21.55
2022-10-25T07:22:37.854Z,21.23
2022-10-25T07:23:42.682Z,26.25
2022-10-25T07:24:46.464Z,20.10
2022-10-25T07:25:49.160Z,24.13
2022-10-25T07:26:53.078Z,23.65
2022-10-25T07:27:56.190Z,22.65
2022-10-25T07:29:01.558Z,22.88
2022-10-25T07:30:04.799Z,19.98
2022-10-25T07:31:09.485Z,22.30
2022-10-25T07:32:14.719Z,19.30
2022-10-25T07:33:19.081Z,22.02
2022-10-25T07:34:24.037Z,25.35
2022-10-25T07:35:28.004Z,22.73
2022-10-25T07:36:31.884Z,19.02
2022-10-25T07:37:35.673Z,21.33
2022-10-25T07:38:38.442Z,20.23
2022-10-25T07:39:44.671Z,21.25
2022-10-25T07:40:47.507Z,18.45
2022-10-25T07:41:51.424Z,15.93
2022-10-25T07:42:54.111Z,16.38
2022-10-25T07:43:58.055Z,21.02
2022-10-25T07:45:01.870Z,19.05
2022-10-25T07:46:05.023Z,15.70
2022-10-25T07:47:08.755Z,13.75
2022-10-25T07:48:12.873Z,15.63
2022-10-25T07:49:16.647Z,15.50
2022-10-25T07:50:21.005Z,14.43
2022-10-25T07:51:24.764Z,15.88
2022-10-25T07:52:27.525Z,18.15
2022-10-25T07:53:31.251Z,13.30
2022-10-25T07:54:35.061Z,15.75
2022-10-25T07:55:37.874Z,14.40
2022-10-25T07:56:41.595Z,14.05
2022-10-25T07:57:44.446Z,12.88
2022-10-25T07:58:48.344Z,17.15
2022-10-25T07:59:52.089Z,11.27
2022-10-25T08:01:02.392Z,12.05
2022-10-25T08:02:06.151Z,13.65
2022-10-25T08:03:09.967Z,13.15
2022-10-25T08:04:15.343Z,15.55
2022-10-25T08:05:18.601Z,15.30
2022-10-25T08:06:23.965Z,12.40
2022-10-25T08:07:26.766Z,14.07
2022-10-25T08:08:30.992Z,15.20
2022-10-25T08:09:38.429Z,13.63
2022-10-25T08:10:42.614Z,16.30
2022-10-25T08:11:46.400Z,14.10
2022-10-25T08:12:49.794Z,18.95
2022-10-25T08:13:53.611Z,15.40
2022-10-25T08:14:56.388Z,14.05
2022-10-25T08:16:00.102Z,14.98
2022-10-25T08:17:03.979Z,15.35
2022-10-25T08:18:09.763Z,15.30
2022-10-25T08:19:13.976Z,13.45
2022-10-25T08:20:17.800Z,16.80
2022-10-25T08:21:21.570Z,13.35
2022-10-25T08:22:24.439Z,12.98
2022-10-25T08:23:29.416Z,11.88
2022-10-25T08:24:33.191Z,12.13
2022-10-25T08:25:36.907Z,15.90
2022-10-25T08:26:39.601Z,15.88
2022-10-25T08:27:43.870Z,15.48
2022-10-25T08:28:47.746Z,13.07
2022-10-25T08:29:50.450Z,12.68
2022-10-25T08:30:55.575Z,12.25
2022-10-25T08:31:58.470Z,13.70
2022-10-25T08:33:02.386Z,16.73
2022-10-25T08:34:06.653Z,13.77
2022-10-25T08:35:10.985Z,12.27
2022-10-25T08:36:14.937Z,14.63
2022-10-25T08:37:18.682Z,14.50
2022-10-25T08:38:21.300Z,16.30
2022-10-25T08:39:25.152Z,15.23
2022-10-25T08:40:38.162Z,15.73
2022-10-25T08:41:46.093Z,13.80
2022-10-25T08:42:58.693Z,14.48
2022-10-25T08:44:11.663Z,18.02
2022-10-25T08:45:19.350Z,19.00
2022-10-25T08:46:26.392Z,16.05
2022-10-25T08:47:42.799Z,16.77
2022-10-25T08:48:50.890Z,18.20
2022-10-25T08:49:58.417Z,19.20
2022-10-25T08:51:05.290Z,19.67
2022-10-25T08:52:19.611Z,21.73
2022-10-25T08:53:25.128Z,18.67
2022-10-25T08:54:30.735Z,17.30
2022-10-25T08:55:41.768Z,19.13
2022-10-25T08:57:14.961Z,24.10
2022-10-25T08:58:22.800Z,23.38
2022-10-25T08:59:28.871Z,22.40
2022-10-25T09:00:37.471Z,21.75
2022-10-25T09:01:46.639Z,25.88
2022-10-25T09:02:53.909Z,22.20
2022-10-25T09:03:56.743Z,19.20
2022-10-25T09:05:01.203Z,21.73
2022-10-25T09:06:14.634Z,28.75
2022-10-25T09:07:47.782Z,21.75
2022-10-25T09:09:01.156Z,21.30
2022-10-25T09:10:16.033Z,21.45
2022-10-25T09:11:32.517Z,17.85
2022-10-25T09:12:43.230Z,23.00
2022-10-25T09:13:52.723Z,17.65
2022-10-25T09:15:03.100Z,23.00
2022-10-25T09:16:11.436Z,19.63
2022-10-25T09:17:19.900Z,21.92
2022-10-25T09:18:46.173Z,18.15
2022-10-25T09:20:06.683Z,20.27
2022-10-25T09:21:22.489Z,19.25
2022-10-25T09:22:28.111Z,16.40
2022-10-25T09:23:33.363Z,20.38
2022-10-25T09:24:41.310Z,17.88
2022-10-25T09:25:49.467Z,15.23
2022-10-25T09:27:01.955Z,19.02
2022-10-25T09:28:10.708Z,17.27
2022-10-25T09:29:18.813Z,16.60
2022-10-25T09:30:22.875Z,16.50
2022-10-25T09:31:26.212Z,22.52
2022-10-25T09:32:33.566Z,17.08
2022-10-25T09:33:36.264Z,20.45
2022-10-25T09:34:41.005Z,16.85
2022-10-25T09:35:47.553Z,15.60
2022-10-25T09:36:55.494Z,18.17
2022-10-25T09:38:03.205Z,15.70
2022-10-25T09:39:15.713Z,15.27
2022-10-25T09:40:21.646Z,15.00
2022-10-25T09:41:35.312Z,16.17
2022-10-25T09:42:40.069Z,12.70
2022-10-25T09:43:49.388Z,13.48
2022-10-25T09:44:55.943Z,16.27
2022-10-25T09:46:03.947Z,12.85
2022-10-25T09:47:16.333Z,14.73
2022-10-25T09:48:25.704Z,14.90
2022-10-25T09:49:31.793Z,14.00
2022-10-25T09:50:39.124Z,16.23
2022-10-25T09:51:49.921Z,12.70
2022-10-25T09:53:03.213Z,14.57
2022-10-25T09:54:16.473Z,16.48
2022-10-25T09:55:33.818Z,13.85
2022-10-25T09:56:40.820Z,12.88
2022-10-25T09:57:46.820Z,16.20
2022-10-25T09:58:50.713Z,12.23
2022-10-25T09:59:53.517Z,14.07
2022-10-25T10:00:59.968Z,14.40
2022-10-25T10:02:03.311Z,10.85
2022-10-25T10:04:26.952Z,14.40
2022-10-25T10:05:30.044Z,13.80
2022-10-25T10:06:36.440Z,12.15
2022-10-25T10:07:40.881Z,13.73
2022-10-25T10:08:49.796Z,14.65
2022-10-25T10:09:56.654Z,17.45
2022-10-25T10:11:00.997Z,17.17
2022-10-25T10:12:05.661Z,11.80
2022-10-25T10:13:15.698Z,14.27
2022-10-25T10:14:23.199Z,15.73
2022-10-25T10:15:29.360Z,15.02
2022-10-25T10:16:35.721Z,16.00
2022-10-25T10:17:39.491Z,16.05
2022-10-25T10:18:43.898Z,15.38
2022-10-25T10:20:08.934Z,21.23
2022-10-25T10:21:16.023Z,14.02
2022-10-25T10:22:19.799Z,14.30
2022-10-25T10:23:22.563Z,14.63
2022-10-25T10:24:29.772Z,16.20
2022-10-25T10:25:33.374Z,12.88
2022-10-25T10:26:39.799Z,16.10
2022-10-25T10:27:42.948Z,20.02
2022-10-25T10:28:48.278Z,15.80
2022-10-25T10:29:57.594Z,13.55
2022-10-25T10:31:01.949Z,15.63
2022-10-25T10:32:07.943Z,20.92
2022-10-25T10:33:18.004Z,19.75
2022-10-25T10:34:27.302Z,16.98
2022-10-25T10:35:33.465Z,17.58
2022-10-25T10:36:37.433Z,22.38
2022-10-25T10:37:41.313Z,19.13
2022-10-25T10:38:45.084Z,19.58
2022-10-25T10:39:54.910Z,19.42
2022-10-25T10:41:14.938Z,17.67
2022-10-25T10:42:19.733Z,19.27
2022-10-25T10:43:29.831Z,17.92
2022-10-25T10:44:35.076Z,16.90
2022-10-25T10:45:37.834Z,17.60
2022-10-25T10:46:46.663Z,16.40
2022-10-25T10:47:58.304Z,18.75
2022-10-25T10:49:03.692Z,20.70
2022-10-25T10:50:13.210Z,17.60
2022-10-25T10:52:46.659Z,18.90
2022-10-25T10:53:50.791Z,16.45
2022-10-25T10:54:56.013Z,16.77
2022-10-25T10:56:02.664Z,17.77
2022-10-25T10:57:07.813Z,16.30
2022-10-25T10:58:16.884Z,17.27
2022-10-25T10:59:34.216Z,19.75
2022-10-25T11:00:38.114Z,18.10
2022-10-25T11:01:40.992Z,13.93
2022-10-25T11:02:45.056Z,16.77
2022-10-25T11:03:59.094Z,16.98
2022-10-25T11:05:20.963Z,14.80
2022-10-25T11:06:28.378Z,15.15
2022-10-25T11:07:35.601Z,12.18
2022-10-25T11:08:41.630Z,18.65
2022-10-25T11:09:45.142Z,18.65
2022-10-25T11:10:50.293Z,13.73
2022-10-25T11:12:07.661Z,16.65
2022-10-25T11:13:16.668Z,13.23
2022-10-25T11:14:20.840Z,15.77
2022-10-25T11:15:24.636Z,13.18
2022-10-25T11:16:38.832Z,13.18
2022-10-25T11:17:44.486Z,16.95
2022-10-25T11:18:54.925Z,19.70
2022-10-25T11:20:09.675Z,14.57
2022-10-25T11:21:46.253Z,16.35
2022-10-25T11:23:01.322Z,13.95
2022-10-25T11:24:15.689Z,14.65
2022-10-25T11:25:29.633Z,15.68
2022-10-25T11:26:51.552Z,13.45
2022-10-25T11:28:10.483Z,13.27
2022-10-25T11:29:18.542Z,15.35
2022-10-25T11:30:23.953Z,15.50
2022-10-25T11:31:36.782Z,15.65
2022-10-25T11:33:16.783Z,16.73
2022-10-25T11:34:27.679Z,14.88
2022-10-25T11:35:45.763Z,13.52
2022-10-25T11:36:59.123Z,13.50
2022-10-25T11:38:05.421Z,12.52
2022-10-25T11:39:37.693Z,11.93
2022-10-25T11:40:41.711Z,11.35
2022-10-25T11:41:49.783Z,9.05
2022-10-25T11:43:00.919Z,10.65
2022-10-25T11:44:18.042Z,13.23
2022-10-25T11:45:29.135Z,9.93
2022-10-25T11:46:38.774Z,8.90
2022-10-25T11:47:44.649Z,8.07
2022-10-25T11:49:09.383Z,9.32
2022-10-25T11:50:22.919Z,11.07
2022-10-25T11:51:31.284Z,11.20
2022-10-25T11:52:56.865Z,10.90
2022-10-25T11:54:24.750Z,13.73
2022-10-25T11:55:35.047Z,10.57
2022-10-25T11:56:45.754Z,8.45
2022-10-25T11:57:59.179Z,10.57
2022-10-25T11:59:12.298Z,9.52
2022-10-25T12:00:18.066Z,7.03
2022-10-25T12:01:35.876Z,6.80
2022-10-25T12:02:50.436Z,9.20
2022-10-25T12:04:03.200Z,6.95
2022-10-25T12:05:23.124Z,7.32
2022-10-25T12:06:31.252Z,8.70
2022-10-25T12:07:38.581Z,6.25
2022-10-25T12:08:51.452Z,7.38
2022-10-25T12:10:03.686Z,6.65
2022-10-25T12:11:12.760Z,8.45
2022-10-25T12:12:20.914Z,6.22
2022-10-25T12:13:29.396Z,6.78
2022-10-25T12:14:36.385Z,8.15
2022-10-25T12:15:42.303Z,6.88
2022-10-25T12:16:45.514Z,7.10
2022-10-25T12:17:49.518Z,5.95
2022-10-25T12:18:59.227Z,6.80
2022-10-25T12:20:05.781Z,7.30
2022-10-25T12:21:11.816Z,7.53
2022-10-25T12:22:19.033Z,8.10
2022-10-25T12:23:24.479Z,7.18
2022-10-25T12:24:30.501Z,5.88
2022-10-25T12:25:37.260Z,6.70
2022-10-25T12:26:42.616Z,5.90
2022-10-25T12:27:47.896Z,8.25
2022-10-25T12:28:53.157Z,8.90
2022-10-25T12:30:00.297Z,5.68
2022-10-25T12:31:10.107Z,8.57
2022-10-25T12:32:18.670Z,8.88
2022-10-25T12:33:31.032Z,7.25
2022-10-25T12:34:43.341Z,8.85
2022-10-25T12:35:50.601Z,5.13
2022-10-25T12:36:56.539Z,6.90
2022-10-25T12:38:02.002Z,6.45
2022-10-25T12:39:17.651Z,7.43
2022-10-25T12:41:32.271Z,8.95
2022-10-25T12:42:40.177Z,5.93
2022-10-25T12:43:46.691Z,6.82
2022-10-25T12:45:06.642Z,10.60
2022-10-25T12:46:30.302Z,6.35
2022-10-25T12:47:56.080Z,9.65
2022-10-25T12:49:34.098Z,6.07
2022-10-25T12:50:52.767Z,5.35
2022-10-25T12:52:08.330Z,7.50
2022-10-25T12:53:50.362Z,5.35
2022-10-25T12:55:30.192Z,7.35
2022-10-25T12:56:50.937Z,7.70
2022-10-25T12:58:07.030Z,6.25
2022-10-25T12:59:19.281Z,8.25
2022-10-25T13:00:24.036Z,8.50
2022-10-25T13:01:59.013Z,7.20
2022-10-25T13:03:35.513Z,6.72
2022-10-25T13:04:51.570Z,7.13
2022-10-25T13:06:33.241Z,7.65
2022-10-25T13:07:37.883Z,8.90
2022-10-25T13:08:41.551Z,8.82
2022-10-25T13:09:45.332Z,10.13
2022-10-25T13:10:50.812Z,9.27
2022-10-25T13:12:00.246Z,7.35
2022-10-25T13:13:05.992Z,8.02
2022-10-25T13:14:26.687Z,5.53
2022-10-25T13:15:40.470Z,7.28
2022-10-25T13:16:44.349Z,4.93
2022-10-25T13:18:03.077Z,5.63
2022-10-25T13:20:54.595Z,5.13
2022-10-25T13:22:12.318Z,5.35
2022-10-25T13:24:03.904Z,6.68
2022-10-25T13:25:09.931Z,5.18
2022-10-25T13:26:15.261Z,9.15
2022-10-25T13:27:22.608Z,7.13
2022-10-25T13:28:34.012Z,8.05
2022-10-25T13:30:00.495Z,7.55
2022-10-25T13:31:49.915Z,10.60
2022-10-25T13:33:29.172Z,7.13
2022-10-25T13:34:37.138Z,9.73
2022-10-25T13:36:03.162Z,8.73
2022-10-25T13:37:32.193Z,8.13
2022-10-25T13:38:39.725Z,8.43
2022-10-25T13:39:45.574Z,9.23
2022-10-25T13:41:07.631Z,7.65
2022-10-25T13:42:21.346Z,9.93
2022-10-25T13:43:25.161Z,8.18
2022-10-25T13:44:28.191Z,6.43
2022-10-25T13:45:40.758Z,7.07
2022-10-25T13:46:43.493Z,8.90
2022-10-25T13:47:48.471Z,9.05
2022-10-25T13:48:55.019Z,6.65
2022-10-25T13:49:59.195Z,12.45
2022-10-25T13:51:08.524Z,7.60
2022-10-25T13:52:23.963Z,8.10
2022-10-25T13:53:34.939Z,7.88
2022-10-25T13:54:44.242Z,8.88
2022-10-25T13:55:49.531Z,8.23
2022-10-25T13:56:54.761Z,10.73
2022-10-25T13:57:58.373Z,13.85
2022-10-25T13:59:02.663Z,14.57
2022-10-25T14:00:12.129Z,14.18
2022-10-25T14:01:58.360Z,11.15
2022-10-25T14:03:28.956Z,19.20
2022-10-25T14:04:43.282Z,13.48
2022-10-25T14:06:08.843Z,21.02
2022-10-25T14:07:46.200Z,15.95
2022-10-25T14:08:54.965Z,25.50
2022-10-25T14:09:59.410Z,20.33
2022-10-25T14:11:06.801Z,17.35
2022-10-25T14:12:16.748Z,14.75
2022-10-25T14:13:25.222Z,12.02
2022-10-25T14:14:29.899Z,10.75
2022-10-25T14:15:45.822Z,9.80
2022-10-25T14:16:59.741Z,8.13
2022-10-25T14:18:08.544Z,10.55
2022-10-25T14:19:15.193Z,13.95
2022-10-25T14:20:26.492Z,10.25
2022-10-25T14:21:30.509Z,11.98
2022-10-25T14:22:35.301Z,14.40
2022-10-25T14:23:39.770Z,14.13
2022-10-25T14:24:42.934Z,18.35
2022-10-25T14:25:53.090Z,15.02
2022-10-25T14:26:58.130Z,15.55
2022-10-25T14:28:16.806Z,15.63
2022-10-25T14:29:21.641Z,9.55
2022-10-25T14:30:27.251Z,13.52
2022-10-25T14:31:31.112Z,9.88
2022-10-25T14:32:33.810Z,9.68